createdAt,value
2023-03-12T00:01:41.323Z,6.05
2023-03-12T00:04:42.795Z,7.43
2023-03-12T00:07:44.455Z,7.22
2023-03-12T00:10:45.959Z,4.97
2023-03-12T00:13:55.137Z,5.88
2023-03-12T00:16:56.643Z,5.97
2023-03-12T00:19:58.520Z,5.00
2023-03-12T00:22:59.993Z,8.85
2023-03-12T00:26:15.432Z,8.02
2023-03-12T00:29:17.017Z,7.70
2023-03-12T00:32:18.511Z,6.60
2023-03-12T00:35:20.018Z,5.63
2023-03-12T00:38:22.167Z,6.60
2023-03-12T00:41:25.329Z,8.52
2023-03-12T00:44:27.162Z,5.78
2023-03-12T00:47:28.651Z,7.35
2023-03-12T00:50:30.213Z,6.22
2023-03-12T00:53:31.778Z,8.10
2023-03-12T00:56:33.414Z,5.53
2023-03-12T00:59:34.973Z,7.72
2023-03-12T01:02:38.119Z,11.60
2023-03-12T01:05:40.794Z,8.65
2023-03-12T01:08:42.527Z,6.68
2023-03-12T01:11:44.050Z,7.47
2023-03-12T01:14:45.682Z,8.35
2023-03-12T01:17:47.205Z,7.65
2023-03-12T01:20:48.825Z,6.18
2023-03-12T01:23:51.010Z,7.55
2023-03-12T01:26:52.508Z,7.18
2023-03-12T01:29:54.178Z,5.97
2023-03-12T01:32:55.694Z,6.53
2023-03-12T01:35:57.291Z,6.30
2023-03-12T01:38:59.662Z,5.30
2023-03-12T01:42:01.908Z,6.10
2023-03-12T01:45:05.192Z,5.30
2023-03-12T01:48:08.014Z,7.55
2023-03-12T01:51:12.311Z,7.05
2023-03-12T01:54:19.262Z,7.40
2023-03-12T01:57:26.768Z,6.00
2023-03-12T02:00:28.364Z,7.47
2023-03-12T02:03:32.764Z,6.45
2023-03-12T02:06:43.803Z,6.50
2023-03-12T02:09:48.716Z,10.60
2023-03-12T02:12:51.056Z,9.02
2023-03-12T02:15:52.547Z,7.68
2023-03-12T02:18:55.779Z,6.43
2023-03-12T02:21:59.327Z,5.97
2023-03-12T02:25:19.220Z,5.63
2023-03-12T02:28:25.222Z,7.28
2023-03-12T02:31:33.206Z,6.85
2023-03-12T02:34:35.927Z,8.50
2023-03-12T02:37:47.848Z,7.55
2023-03-12T02:40:51.101Z,5.55
2023-03-12T02:44:04.438Z,5.67
2023-03-12T02:47:06.205Z,9.82
2023-03-12T02:50:08.496Z,6.50
2023-03-12T02:53:10.063Z,6.53
2023-03-12T02:56:11.618Z,11.10
2023-03-12T02:59:14.381Z,8.30
2023-03-12T03:02:17.926Z,6.15
2023-03-12T03:05:20.460Z,6.88
2023-03-12T03:08:22.264Z,5.40
2023-03-12T03:11:24.785Z,5.68
2023-03-12T03:14:29.031Z,7.47
2023-03-12T03:17:30.734Z,7.38
2023-03-12T03:20:32.625Z,5.57
2023-03-12T03:23:34.723Z,7.15
2023-03-12T03:26:36.314Z,7.55
2023-03-12T03:29:37.993Z,6.63
2023-03-12T03:32:39.647Z,8.18
2023-03-12T03:35:41.342Z,5.60
2023-03-12T03:38:46.997Z,7.38
2023-03-12T03:41:48.764Z,5.30
2023-03-12T03:44:53.086Z,9.73
2023-03-12T03:47:54.760Z,6.78
2023-03-12T03:51:01.903Z,5.90
2023-03-12T03:54:05.396Z,6.28
2023-03-12T03:57:07.150Z,5.63
2023-03-12T04:00:09.918Z,6.63
2023-03-12T04:03:15.455Z,5.50
2023-03-12T04:06:17.054Z,5.88
2023-03-12T04:09:18.734Z,6.10
2023-03-12T04:12:21.339Z,6.63
2023-03-12T04:15:22.903Z,5.30
2023-03-12T04:18:24.685Z,5.60
2023-03-12T04:21:26.478Z,4.38
2023-03-12T04:24:28.006Z,4.32
2023-03-12T04:27:29.708Z,5.20
2023-03-12T04:30:31.551Z,5.35
2023-03-12T04:33:36.621Z,5.70
2023-03-12T04:36:38.631Z,7.13
2023-03-12T04:39:41.773Z,5.53
2023-03-12T04:42:43.396Z,4.78
2023-03-12T04:45:45.216Z,5.03
2023-03-12T04:48:46.898Z,4.60
2023-03-12T04:51:49.632Z,5.28
2023-03-12T04:54:53.594Z,5.82
2023-03-12T04:57:55.394Z,4.55
2023-03-12T05:00:58.662Z,5.13
2023-03-12T05:04:00.448Z,4.13
2023-03-12T05:07:02.392Z,4.28
2023-03-12T05:10:04.673Z,3.95
2023-03-12T05:13:14.179Z,3.55
2023-03-12T05:16:16.712Z,4.10
2023-03-12T05:19:18.554Z,6.07
2023-03-12T05:22:20.127Z,3.80
2023-03-12T05:25:21.857Z,4.82
2023-03-12T05:28:28.494Z,5.47
2023-03-12T05:31:35.245Z,4.63
2023-03-12T05:34:38.573Z,6.03
2023-03-12T05:37:42.796Z,4.85
2023-03-12T05:40:53.605Z,4.57
2023-03-12T05:43:57.232Z,4.82
2023-03-12T05:46:59.223Z,3.90
2023-03-12T05:50:01.769Z,3.58
2023-03-12T05:53:04.429Z,5.03
2023-03-12T05:56:09.303Z,4.03
2023-03-12T05:59:10.989Z,2.70
2023-03-12T06:02:14.485Z,3.47
2023-03-12T06:05:16.118Z,1.95
2023-03-12T06:08:17.570Z,1.58
2023-03-12T06:11:19.079Z,1.10
2023-03-12T06:14:20.632Z,1.45
2023-03-12T06:17:22.878Z,1.02
2023-03-12T06:20:24.395Z,2.70
2023-03-12T06:23:25.871Z,0.45
2023-03-12T06:26:28.487Z,1.80
2023-03-12T06:29:29.991Z,0.75
2023-03-12T06:32:31.604Z,0.98
2023-03-12T06:35:34.300Z,7.35
2023-03-12T06:38:36.703Z,1.15
2023-03-12T06:41:38.218Z,1.63
2023-03-12T06:44:39.757Z,1.73
2023-03-12T06:47:41.258Z,1.48
2023-03-12T06:50:43.364Z,1.38
2023-03-12T06:53:45.451Z,2.55
2023-03-12T06:56:47.062Z,2.35
2023-03-12T06:59:50.571Z,1.88
2023-03-12T07:02:52.271Z,2.83
2023-03-12T07:05:56.268Z,3.67
2023-03-12T07:08:57.850Z,1.17
2023-03-12T07:11:59.334Z,1.13
2023-03-12T07:15:00.849Z,1.17
2023-03-12T07:18:07.472Z,1.85
2023-03-12T07:21:09.022Z,2.15
2023-03-12T07:24:10.674Z,1.73
2023-03-12T07:27:12.189Z,2.15
2023-03-12T07:30:13.908Z,1.58
2023-03-12T07:33:17.144Z,1.80
2023-03-12T07:36:18.815Z,1.93
2023-03-12T07:39:20.599Z,2.88
2023-03-12T07:42:22.945Z,1.95
2023-03-12T07:45:25.105Z,2.33
2023-03-12T07:48:26.837Z,3.08
2023-03-12T07:51:28.534Z,1.42
2023-03-12T07:54:30.709Z,2.67
2023-03-12T07:57:32.363Z,2.17
2023-03-12T08:00:33.941Z,1.92
2023-03-12T08:03:35.742Z,2.40
2023-03-12T08:06:38.733Z,2.20
2023-03-12T08:09:40.666Z,4.13
2023-03-12T08:12:42.152Z,4.45
2023-03-12T08:15:44.165Z,3.05
2023-03-12T08:18:45.668Z,3.17
2023-03-12T08:21:47.186Z,4.20
2023-03-12T08:24:48.936Z,3.05
2023-03-12T08:27:50.419Z,5.57
2023-03-12T08:30:53.967Z,3.85
2023-03-12T08:33:55.508Z,3.75
2023-03-12T08:36:57.090Z,3.35
2023-03-12T08:39:59.576Z,3.78
2023-03-12T08:43:01.208Z,4.60
2023-03-12T08:46:03.886Z,5.30
2023-03-12T08:49:05.444Z,5.80
2023-03-12T08:52:07.104Z,3.60
2023-03-12T08:55:10.427Z,2.45
2023-03-12T08:58:12.065Z,1.83
2023-03-12T09:01:14.059Z,0.90
2023-03-12T09:04:16.458Z,1.80
2023-03-12T09:07:22.247Z,1.73
2023-03-12T09:10:25.160Z,1.08
2023-03-12T09:13:40.546Z,0.98
2023-03-12T09:16:49.203Z,1.50
2023-03-12T09:19:50.745Z,1.33
2023-03-12T09:22:52.407Z,1.75
2023-03-12T09:25:54.845Z,1.05
2023-03-12T09:28:57.913Z,0.57
2023-03-12T09:31:59.513Z,1.13
2023-03-12T09:35:01.054Z,1.00
2023-03-12T09:38:04.021Z,1.33
2023-03-12T09:41:06.713Z,0.95
2023-03-12T09:44:29.416Z,0.90
2023-03-12T09:47:34.871Z,1.20
2023-03-12T09:50:43.587Z,1.85
2023-03-12T09:53:49.348Z,1.88
2023-03-12T09:56:54.962Z,2.45
2023-03-12T09:59:57.092Z,0.80
2023-03-12T10:03:12.675Z,0.75
2023-03-12T10:06:20.394Z,2.90
2023-03-12T10:09:46.685Z,2.88
2023-03-12T10:13:05.237Z,2.78
2023-03-12T10:16:18.558Z,1.30
2023-03-12T10:19:38.071Z,2.15
2023-03-12T10:23:06.837Z,0.73
2023-03-12T10:26:32.183Z,1.40
2023-03-12T10:29:38.961Z,1.15
2023-03-12T10:32:52.058Z,1.42
2023-03-12T10:35:54.912Z,1.77
2023-03-12T10:38:56.422Z,1.55
2023-03-12T10:42:00.378Z,2.15
2023-03-12T10:45:22.569Z,2.40
2023-03-12T10:48:25.942Z,4.30
2023-03-12T10:51:27.425Z,3.15
2023-03-12T10:54:40.577Z,1.77
2023-03-12T10:57:42.633Z,2.03
2023-03-12T11:00:56.735Z,4.22
2023-03-12T11:04:26.177Z,3.10
2023-03-12T11:07:34.097Z,2.95
2023-03-12T11:10:46.819Z,4.18
2023-03-12T11:14:07.290Z,1.55
2023-03-12T11:17:24.931Z,4.10
2023-03-12T11:20:29.162Z,2.35
2023-03-12T11:23:31.247Z,4.43
2023-03-12T11:26:51.695Z,4.90
2023-03-12T11:29:54.295Z,2.78
2023-03-12T11:32:57.954Z,2.88
2023-03-12T11:36:04.285Z,4.80
2023-03-12T11:39:20.662Z,5.88
2023-03-12T11:42:58.396Z,5.43
2023-03-12T11:46:17.851Z,4.18
2023-03-12T11:49:49.773Z,5.55
2023-03-12T11:53:18.038Z,5.15
2023-03-12T11:56:46.439Z,5.20
2023-03-12T12:00:09.118Z,4.63
2023-03-12T12:03:31.922Z,8.43
2023-03-12T12:06:40.947Z,5.95
2023-03-12T12:10:04.632Z,6.28
2023-03-12T12:13:28.140Z,7.32
2023-03-12T12:16:29.714Z,7.13
2023-03-12T12:20:00.223Z,7.65
2023-03-12T12:23:07.519Z,7.75
2023-03-12T12:26:13.040Z,5.45
2023-03-12T12:29:25.825Z,7.65
2023-03-12T12:32:48.995Z,11.65
2023-03-12T12:35:51.040Z,5.95
2023-03-12T12:39:18.493Z,5.88
2023-03-12T12:42:25.992Z,6.55
2023-03-12T12:45:30.893Z,5.47
2023-03-12T12:48:42.131Z,10.13
2023-03-12T12:51:49.066Z,7.93
2023-03-12T12:54:54.734Z,7.30
2023-03-12T12:58:11.649Z,5.88
2023-03-12T13:01:16.110Z,5.00
2023-03-12T13:04:26.891Z,6.80
2023-03-12T13:07:31.156Z,5.85
2023-03-12T13:10:32.712Z,4.15
2023-03-12T13:13:34.394Z,6.70
2023-03-12T13:16:40.033Z,6.43
2023-03-12T13:19:51.965Z,4.93
2023-03-12T13:23:14.014Z,8.40
2023-03-12T13:26:22.745Z,5.10
2023-03-12T13:29:31.168Z,6.00
2023-03-12T13:32:35.510Z,7.53
2023-03-12T13:35:39.583Z,9.77
2023-03-12T13:41:56.496Z,7.65
2023-03-12T13:45:21.445Z,5.15
2023-03-12T13:48:25.074Z,6.88
2023-03-12T13:51:27.056Z,6.47
2023-03-12T13:54:33.203Z,8.35
2023-03-12T13:57:41.130Z,8.35
2023-03-12T14:01:01.260Z,5.88
2023-03-12T14:04:08.918Z,7.18
2023-03-12T14:07:32.375Z,7.22
2023-03-12T14:11:00.174Z,9.73
2023-03-12T14:14:24.125Z,9.57
2023-03-12T14:17:28.220Z,9.38
2023-03-12T14:23:39.587Z,9.85
2023-03-12T14:26:41.333Z,7.40
2023-03-12T14:29:55.214Z,7.97
2023-03-12T14:33:01.326Z,8.63
2023-03-12T14:36:15.007Z,5.47
2023-03-12T14:39:28.736Z,8.73
2023-03-12T14:42:33.831Z,6.50
2023-03-12T14:45:40.033Z,7.28
2023-03-12T14:48:41.857Z,11.10
2023-03-12T14:51:43.694Z,9.02
2023-03-12T14:54:57.670Z,7.13
2023-03-12T14:58:18.618Z,7.78
2023-03-12T15:01:27.022Z,6.22
2023-03-12T15:04:29.957Z,7.07
2023-03-12T15:07:36.041Z,7.57
2023-03-12T15:10:39.165Z,5.68
2023-03-12T15:13:43.351Z,6.87
2023-03-12T15:16:45.566Z,6.93
2023-03-12T15:19:48.955Z,8.52
2023-03-12T15:22:52.232Z,7.25
2023-03-12T15:26:15.302Z,7.87
2023-03-12T15:29:26.510Z,8.10
2023-03-12T15:32:30.605Z,5.53
2023-03-12T15:35:32.677Z,9.82
2023-03-12T15:38:38.209Z,10.13
2023-03-12T15:41:45.378Z,10.52
2023-03-12T15:44:57.469Z,7.68
2023-03-12T15:47:59.059Z,8.82
2023-03-12T15:51:00.920Z,7.55
2023-03-12T15:54:14.540Z,8.25
2023-03-12T15:57:24.190Z,9.63
2023-03-12T16:00:29.514Z,8.82
2023-03-12T16:03:31.064Z,9.90
2023-03-12T16:06:32.733Z,9.60
2023-03-12T16:09:35.102Z,12.57
2023-03-12T16:12:38.111Z,9.93
2023-03-12T16:15:40.023Z,9.38
2023-03-12T16:18:42.847Z,8.27
2023-03-12T16:21:45.607Z,9.93
2023-03-12T16:24:47.104Z,10.23
2023-03-12T16:27:55.153Z,7.70
2023-03-12T16:30:56.748Z,11.85
2023-03-12T16:33:59.011Z,12.65
2023-03-12T16:37:01.057Z,9.52
2023-03-12T16:40:04.122Z,11.85
2023-03-12T16:43:07.593Z,9.27
2023-03-12T16:46:09.728Z,11.50
2023-03-12T16:49:14.581Z,14.45
2023-03-12T16:52:24.420Z,14.55
2023-03-12T16:55:28.636Z,9.02
2023-03-12T16:58:30.286Z,10.85
2023-03-12T17:01:32.117Z,15.52
2023-03-12T17:04:33.782Z,12.82
2023-03-12T17:07:35.727Z,8.82
2023-03-12T17:10:37.235Z,11.38
2023-03-12T17:13:38.723Z,10.35
2023-03-12T17:16:40.283Z,12.45
2023-03-12T17:19:41.766Z,13.52
2023-03-12T17:22:43.394Z,10.15
2023-03-12T17:25:45.540Z,12.52
2023-03-12T17:28:47.225Z,20.27
2023-03-12T17:31:48.875Z,12.60
2023-03-12T17:34:59.709Z,10.13
2023-03-12T17:38:01.200Z,13.65
2023-03-12T17:41:09.370Z,18.45
2023-03-12T17:44:15.901Z,12.05
2023-03-12T17:47:17.419Z,15.38
2023-03-12T17:50:19.273Z,11.90
2023-03-12T17:53:20.767Z,11.63
2023-03-12T17:56:22.254Z,13.13
2023-03-12T17:59:23.741Z,13.52
2023-03-12T18:02:25.351Z,14.65
2023-03-12T18:05:27.093Z,10.65
2023-03-12T18:08:28.904Z,13.63
2023-03-12T18:11:30.377Z,13.88
2023-03-12T18:14:32.208Z,12.63
2023-03-12T18:17:33.982Z,13.82
2023-03-12T18:20:39.469Z,13.02
2023-03-12T18:23:42.564Z,14.68
2023-03-12T18:26:45.241Z,10.88
2023-03-12T18:29:46.817Z,13.00
2023-03-12T18:32:48.354Z,11.80
2023-03-12T18:35:50.781Z,9.80
2023-03-12T18:38:53.128Z,14.30
2023-03-12T18:41:55.706Z,12.48
2023-03-12T18:44:57.140Z,15.77
2023-03-12T18:47:58.694Z,10.43
2023-03-12T18:51:00.258Z,11.68
2023-03-12T18:54:01.911Z,15.18
2023-03-12T18:57:03.441Z,15.32
2023-03-12T19:00:06.273Z,12.75
2023-03-12T19:03:09.239Z,15.60
2023-03-12T19:06:14.235Z,12.90
2023-03-12T19:09:15.728Z,15.93
2023-03-12T19:12:17.168Z,17.73
2023-03-12T19:15:19.566Z,10.25
2023-03-12T19:18:21.054Z,18.40
2023-03-12T19:21:23.104Z,17.23
2023-03-12T19:24:24.771Z,20.75
2023-03-12T19:27:28.114Z,13.73
2023-03-12T19:30:32.978Z,14.57
2023-03-12T19:33:34.844Z,20.73
2023-03-12T19:36:36.397Z,12.43
2023-03-12T19:39:37.829Z,11.98
2023-03-12T19:42:39.336Z,13.15
2023-03-12T19:45:40.862Z,12.23
2023-03-12T19:48:42.355Z,14.25
2023-03-12T19:51:43.947Z,14.15
2023-03-12T19:54:54.709Z,12.77
2023-03-12T19:58:05.090Z,11.90
2023-03-12T20:01:06.550Z,11.02
2023-03-12T20:04:08.874Z,13.48
2023-03-12T20:07:12.482Z,12.05
2023-03-12T20:10:14.190Z,17.38
2023-03-12T20:13:17.735Z,9.48
2023-03-12T20:16:20.066Z,14.43
2023-03-12T20:19:21.759Z,9.30
2023-03-12T20:22:25.597Z,12.68
2023-03-12T20:25:27.110Z,12.32
2023-03-12T20:28:28.880Z,9.85
2023-03-12T20:31:30.409Z,11.80
2023-03-12T20:34:31.886Z,11.52
2023-03-12T20:37:33.353Z,11.82
2023-03-12T20:40:35.312Z,10.00
2023-03-12T20:43:36.832Z,10.02
2023-03-12T20:46:38.304Z,7.10
2023-03-12T20:49:39.846Z,9.98
2023-03-12T20:52:43.148Z,13.50
2023-03-12T20:55:44.630Z,10.38
2023-03-12T20:58:46.111Z,12.18
2023-03-12T21:01:47.609Z,14.52
2023-03-12T21:04:49.521Z,9.13
2023-03-12T21:07:52.347Z,13.85
2023-03-12T21:10:54.426Z,12.55
2023-03-12T21:13:55.968Z,9.80
2023-03-12T21:16:57.827Z,9.05
2023-03-12T21:19:59.326Z,11.00
2023-03-12T21:23:01.020Z,11.52
2023-03-12T21:26:07.845Z,10.20
2023-03-12T21:29:10.491Z,8.40
2023-03-12T21:32:11.950Z,10.05
2023-03-12T21:35:13.391Z,10.30
2023-03-12T21:38:15.245Z,14.00
2023-03-12T21:41:18.184Z,7.28
2023-03-12T21:44:19.625Z,8.32
2023-03-12T21:47:21.071Z,10.88
2023-03-12T21:50:22.786Z,8.30
2023-03-12T21:53:24.480Z,8.70
2023-03-12T21:56:28.232Z,4.68
2023-03-12T21:59:30.231Z,8.07
2023-03-12T22:02:31.969Z,10.77
2023-03-12T22:05:33.425Z,10.13
2023-03-12T22:08:35.135Z,9.80
2023-03-12T22:11:36.919Z,7.55
2023-03-12T22:14:38.356Z,8.73
2023-03-12T22:17:39.885Z,7.88
2023-03-12T22:20:41.318Z,9.02
2023-03-12T22:23:42.907Z,11.10
2023-03-12T22:26:45.782Z,10.15
2023-03-12T22:29:47.301Z,9.07
2023-03-12T22:32:48.802Z,8.23
2023-03-12T22:35:50.368Z,5.72
2023-03-12T22:38:52.366Z,6.25
2023-03-12T22:41:53.833Z,8.68
2023-03-12T22:44:55.332Z,5.97
2023-03-12T22:47:56.785Z,10.50
2023-03-12T22:50:58.338Z,6.15
2023-03-12T22:54:00.272Z,5.13
2023-03-12T22:57:01.866Z,6.20
2023-03-12T23:00:24.251Z,6.25
2023-03-12T23:03:26.566Z,7.32
2023-03-12T23:06:29.993Z,5.00
2023-03-12T23:09:31.634Z,6.80
2023-03-12T23:12:33.113Z,5.43
2023-03-12T23:15:40.746Z,5.57
2023-03-12T23:18:44.461Z,5.30
2023-03-12T23:21:45.938Z,8.35
2023-03-12T23:24:47.375Z,5.95
2023-03-12T23:27:48.905Z,7.43
2023-03-12T23:31:01.645Z,4.65
2023-03-12T23:34:03.365Z,4.65
2023-03-12T23:37:05.115Z,6.40
2023-03-12T23:40:07.086Z,6.15
2023-03-12T23:43:08.573Z,7.53
2023-03-12T23:46:11.686Z,4.18
2023-03-12T23:49:13.215Z,6.80
2023-03-12T23:52:14.736Z,3.58
2023-03-12T23:55:17.373Z,6.60
2023-03-12T23:58:18.845Z,5.53
